createdAt,value
2023-01-12T00:03:11.796Z,7.30
2023-01-12T00:08:13.637Z,7.03
2023-01-12T00:13:15.261Z,5.85
2023-01-12T00:18:16.863Z,5.43
2023-01-12T00:23:19.671Z,5.00
2023-01-12T00:28:21.299Z,4.72
2023-01-12T00:33:22.924Z,4.47
2023-01-12T00:38:24.821Z,5.45
2023-01-12T00:43:45.181Z,5.50
2023-01-12T00:48:47.006Z,5.32
2023-01-12T00:53:49.751Z,4.88
2023-01-12T00:58:51.363Z,5.18
2023-01-12T01:03:53.000Z,6.35
2023-01-12T01:08:55.293Z,6.28
2023-01-12T01:13:57.087Z,7.03
2023-01-12T01:18:59.452Z,5.60
2023-01-12T01:24:01.150Z,6.53
2023-01-12T01:29:02.755Z,6.03
2023-01-12T01:34:04.366Z,5.28
2023-01-12T01:39:06.007Z,5.15
2023-01-12T01:44:29.596Z,4.95
2023-01-12T01:49:55.841Z,5.50
2023-01-12T01:55:10.608Z,5.45
2023-01-12T02:00:13.224Z,4.95
2023-01-12T02:05:19.022Z,5.38
2023-01-12T02:10:21.331Z,5.70
2023-01-12T02:15:45.053Z,5.93
2023-01-12T02:21:05.239Z,7.22
2023-01-12T02:26:38.205Z,6.88
2023-01-12T02:31:54.622Z,6.43
2023-01-12T02:36:58.911Z,4.75
2023-01-12T02:42:25.391Z,6.72
2023-01-12T02:47:58.689Z,5.60
2023-01-12T02:53:07.098Z,5.15
2023-01-12T02:58:12.391Z,5.15
2023-01-12T03:03:17.227Z,5.68
2023-01-12T03:08:23.730Z,5.57
2023-01-12T03:13:28.986Z,5.68
2023-01-12T03:18:34.638Z,5.07
2023-01-12T03:24:03.271Z,7.72
2023-01-12T03:29:30.569Z,8.03
2023-01-12T03:34:33.376Z,7.72
2023-01-12T03:39:53.909Z,6.57
2023-01-12T03:45:15.942Z,6.75
2023-01-12T03:50:23.837Z,6.10
2023-01-12T03:55:29.967Z,6.32
2023-01-12T04:00:32.016Z,6.90
2023-01-12T04:05:33.848Z,5.63
2023-01-12T04:10:36.000Z,5.10
2023-01-12T04:15:42.359Z,6.00
2023-01-12T04:20:44.095Z,6.82
2023-01-12T04:25:45.733Z,7.53
2023-01-12T04:30:47.352Z,6.47
2023-01-12T04:35:48.980Z,6.22
2023-01-12T04:40:54.763Z,6.40
2023-01-12T04:45:56.443Z,6.22
2023-01-12T04:51:00.683Z,7.63
2023-01-12T04:56:07.158Z,7.00
2023-01-12T05:01:14.370Z,6.70
2023-01-12T05:06:16.038Z,4.60
2023-01-12T05:11:17.760Z,3.65
2023-01-12T05:16:19.579Z,3.33
2023-01-12T05:21:22.425Z,2.72
2023-01-12T05:26:24.078Z,2.55
2023-01-12T05:31:25.704Z,2.40
2023-01-12T05:36:27.313Z,2.13
2023-01-12T05:41:28.995Z,2.20
2023-01-12T05:46:33.397Z,2.85
2023-01-12T05:51:35.004Z,2.30
2023-01-12T05:56:36.693Z,2.40
2023-01-12T06:01:40.391Z,1.98
2023-01-12T06:06:42.333Z,2.08
2023-01-12T06:12:02.216Z,2.47
2023-01-12T06:17:03.883Z,3.25
2023-01-12T06:22:07.684Z,10.80
2023-01-12T06:27:09.351Z,17.23
2023-01-12T06:32:11.179Z,13.90
2023-01-12T06:37:13.086Z,3.58
2023-01-12T06:42:29.579Z,2.85
2023-01-12T06:47:31.503Z,2.45
2023-01-12T06:52:33.154Z,1.95
2023-01-12T06:57:34.812Z,1.20
2023-01-12T07:02:36.394Z,1.35
2023-01-12T07:07:40.081Z,2.20
2023-01-12T07:12:42.041Z,1.67
2023-01-12T07:17:43.641Z,1.60
2023-01-12T07:22:45.270Z,1.38
2023-01-12T07:27:58.167Z,1.10
2023-01-12T07:33:12.337Z,1.77
2023-01-12T07:38:14.157Z,1.60
2023-01-12T07:43:17.288Z,1.30
2023-01-12T07:48:21.328Z,1.83
2023-01-12T07:53:23.857Z,1.90
2023-01-12T07:58:27.593Z,1.60
2023-01-12T08:03:29.273Z,2.30
2023-01-12T08:08:30.912Z,3.88
2023-01-12T08:13:33.545Z,2.63
2023-01-12T08:18:55.382Z,2.42
2023-01-12T08:24:00.508Z,1.75
2023-01-12T08:29:12.169Z,1.50
2023-01-12T08:34:14.782Z,1.55
2023-01-12T08:39:16.444Z,2.45
2023-01-12T08:44:19.025Z,2.20
2023-01-12T08:49:24.536Z,3.17
2023-01-12T08:54:26.383Z,3.38
2023-01-12T08:59:28.015Z,3.95
2023-01-12T09:04:29.677Z,1.35
2023-01-12T09:09:31.331Z,1.20
2023-01-12T09:14:38.477Z,1.17
2023-01-12T09:19:40.146Z,1.10
2023-01-12T09:24:41.896Z,1.92
2023-01-12T09:29:43.578Z,2.13
2023-01-12T09:34:48.389Z,0.90
2023-01-12T09:39:50.108Z,1.08
2023-01-12T09:45:11.410Z,1.27
2023-01-12T09:50:28.481Z,1.60
2023-01-12T09:55:41.992Z,1.35
2023-01-12T10:00:43.637Z,1.23
2023-01-12T10:06:00.740Z,0.77
2023-01-12T10:11:32.583Z,1.02
2023-01-12T10:17:05.775Z,0.80
2023-01-12T10:22:39.685Z,1.00
2023-01-12T10:27:45.061Z,1.05
2023-01-12T10:32:47.014Z,1.42
2023-01-12T10:37:51.884Z,1.00
2023-01-12T10:43:20.728Z,1.20
2023-01-12T10:48:23.142Z,1.27
2023-01-12T10:53:38.116Z,1.08
2023-01-12T10:58:41.878Z,1.40
2023-01-12T11:03:43.608Z,0.98
2023-01-12T11:08:45.230Z,1.50
2023-01-12T11:13:47.361Z,1.00
2023-01-12T11:18:58.211Z,1.27
2023-01-12T11:24:12.537Z,1.02
2023-01-12T11:29:34.027Z,1.42
2023-01-12T11:34:44.717Z,1.10
2023-01-12T11:39:52.613Z,1.15
2023-01-12T11:45:07.019Z,1.00
2023-01-12T11:50:22.009Z,1.02
2023-01-12T11:55:48.855Z,1.10
2023-01-12T12:01:15.607Z,1.27
2023-01-12T12:06:27.048Z,0.70
2023-01-12T12:11:47.018Z,1.35
2023-01-12T12:17:09.575Z,1.00
2023-01-12T12:22:26.403Z,0.80
2023-01-12T12:27:36.065Z,1.00
2023-01-12T12:33:02.350Z,0.93
2023-01-12T12:38:29.848Z,0.65
2023-01-12T12:43:54.551Z,0.68
2023-01-12T12:49:03.161Z,1.40
2023-01-12T12:54:10.689Z,1.15
2023-01-12T12:59:31.332Z,0.60
2023-01-12T13:04:42.700Z,0.65
2023-01-12T13:09:49.631Z,0.85
2023-01-12T13:15:36.391Z,1.02
2023-01-12T13:20:51.174Z,0.95
2023-01-12T13:25:57.358Z,1.45
2023-01-12T13:31:00.436Z,8.25
2023-01-12T13:36:06.335Z,1.00
2023-01-12T13:41:39.871Z,0.63
2023-01-12T13:46:51.612Z,0.50
2023-01-12T13:52:01.065Z,1.20
2023-01-12T13:57:06.772Z,0.50
2023-01-12T14:02:18.831Z,0.40
2023-01-12T14:07:36.173Z,0.60
2023-01-12T14:13:01.206Z,0.50
2023-01-12T14:18:19.912Z,0.50
2023-01-12T14:23:36.396Z,0.50
2023-01-12T14:28:44.500Z,0.43
2023-01-12T14:33:53.075Z,0.55
2023-01-12T14:38:56.396Z,0.28
2023-01-12T14:44:16.803Z,0.50
2023-01-12T14:49:30.391Z,0.28
2023-01-12T14:54:34.491Z,0.35
2023-01-12T14:59:45.602Z,0.73
2023-01-12T15:05:07.131Z,0.57
2023-01-12T15:10:09.103Z,0.93
2023-01-12T15:15:24.418Z,0.60
2023-01-12T15:20:47.712Z,1.27
2023-01-12T15:25:49.613Z,1.23
2023-01-12T15:30:52.913Z,1.40
2023-01-12T15:35:54.831Z,0.90
2023-01-12T15:40:56.734Z,1.25
2023-01-12T15:45:58.434Z,1.35
2023-01-12T15:51:00.291Z,1.33
2023-01-12T15:56:01.940Z,1.10
2023-01-12T16:01:06.779Z,1.88
2023-01-12T16:06:08.611Z,2.53
2023-01-12T16:11:20.198Z,2.60
2023-01-12T16:16:21.839Z,2.70
2023-01-12T16:21:23.571Z,2.88
2023-01-12T16:26:26.293Z,2.75
2023-01-12T16:31:28.235Z,4.38
2023-01-12T16:36:30.139Z,3.65
2023-01-12T16:41:31.724Z,3.42
2023-01-12T16:46:33.329Z,3.45
2023-01-12T16:51:35.087Z,3.40
2023-01-12T16:56:36.728Z,3.58
2023-01-12T17:01:38.560Z,3.85
2023-01-12T17:06:40.873Z,3.55
2023-01-12T17:11:43.896Z,3.50
2023-01-12T17:16:45.707Z,3.65
2023-01-12T17:21:49.856Z,5.28
2023-01-12T17:26:53.461Z,4.07
2023-01-12T17:32:04.059Z,4.97
2023-01-12T17:37:09.718Z,4.82
2023-01-12T17:42:35.540Z,6.55
2023-01-12T17:47:37.393Z,5.63
2023-01-12T17:52:39.094Z,5.82
2023-01-12T17:57:40.840Z,6.28
2023-01-12T18:02:43.037Z,12.80
2023-01-12T18:07:44.934Z,9.43
2023-01-12T18:12:46.678Z,7.78
2023-01-12T18:17:49.656Z,7.13
2023-01-12T18:22:55.228Z,5.70
2023-01-12T18:27:56.893Z,6.32
2023-01-12T18:32:58.536Z,6.78
2023-01-12T18:38:00.136Z,8.20
2023-01-12T18:43:01.948Z,7.50
2023-01-12T18:48:23.651Z,5.40
2023-01-12T18:53:25.996Z,5.13
2023-01-12T18:58:30.959Z,6.43
2023-01-12T19:03:34.362Z,7.68
2023-01-12T19:08:54.641Z,8.75
2023-01-12T19:14:14.857Z,6.15
2023-01-12T19:19:16.576Z,6.43
2023-01-12T19:24:37.261Z,6.68
2023-01-12T19:29:40.869Z,5.85
2023-01-12T19:34:43.394Z,6.93
2023-01-12T19:40:04.110Z,7.28
2023-01-12T19:45:08.600Z,7.22
2023-01-12T19:50:12.414Z,6.50
2023-01-12T19:55:15.011Z,6.32
2023-01-12T20:00:17.600Z,5.00
2023-01-12T20:05:22.726Z,7.25
2023-01-12T20:10:24.670Z,7.53
2023-01-12T20:15:26.779Z,6.32
2023-01-12T20:20:30.536Z,6.35
2023-01-12T20:25:32.643Z,11.82
2023-01-12T20:30:38.869Z,8.63
2023-01-12T20:35:46.654Z,9.27
2023-01-12T20:40:48.555Z,11.07
2023-01-12T20:45:52.443Z,7.75
2023-01-12T20:50:54.208Z,6.47
2023-01-12T20:55:55.832Z,7.15
2023-01-12T21:00:57.869Z,6.85
2023-01-12T21:06:01.192Z,7.28
2023-01-12T21:11:03.086Z,7.00
2023-01-12T21:16:07.037Z,8.75
2023-01-12T21:21:09.763Z,7.68
2023-01-12T21:26:11.503Z,6.82
2023-01-12T21:31:13.537Z,6.55
2023-01-12T21:36:15.220Z,5.93
2023-01-12T21:41:17.646Z,6.20
2023-01-12T21:46:20.486Z,6.22
2023-01-12T21:51:22.162Z,6.55
2023-01-12T21:56:23.808Z,6.63
2023-01-12T22:01:25.607Z,5.55
2023-01-12T22:06:27.383Z,5.60
2023-01-12T22:11:29.049Z,5.90
2023-01-12T22:16:31.897Z,5.82
2023-01-12T22:21:33.637Z,5.65
2023-01-12T22:26:35.629Z,6.75
2023-01-12T22:31:37.754Z,6.15
2023-01-12T22:36:43.338Z,7.20
2023-01-12T22:41:44.999Z,7.03
2023-01-12T22:46:46.609Z,6.47
2023-01-12T22:51:48.216Z,6.70
2023-01-12T22:56:49.993Z,6.40
2023-01-12T23:01:51.660Z,6.80
2023-01-12T23:06:53.533Z,6.13
2023-01-12T23:11:55.235Z,6.15
2023-01-12T23:16:56.871Z,5.72
2023-01-12T23:22:01.014Z,6.22
2023-01-12T23:27:02.619Z,6.10
2023-01-12T23:32:04.415Z,5.38
2023-01-12T23:37:06.084Z,6.68
2023-01-12T23:42:07.675Z,5.97
2023-01-12T23:47:09.361Z,6.25
2023-01-12T23:52:11.037Z,6.53
2023-01-12T23:57:12.689Z,6.85
